Terminal Aerodrome Forecast
Issued by NWS Sterling, VA

Current Version | Previous Version | Text Only | Print | Product List | Glossary Off
Versions: 1 2 3 4 5 6 7 8 9 10 11 12 13 14

783
FTUS41 KLWX 210911 AAA
TAFMRB
TAF AMD
KMRB 210911Z 2109/2206 35005KT P6SM OVC025
     FM211600 33008KT P6SM SCT040 BKN250
     FM212300 30008KT P6SM BKN050=

USA.gov is the U.S. government's official web portal to all federal, state and local government web resources and services.